sensor_id;sensor_type;location;lat;lon;timestamp;P1;P2;P0
67892;PMS7003;54688;52.376;16.744;2022-11-20T00:02:57;20;16;
67892;PMS7003;54688;52.376;16.744;2022-11-20T00:06:00;29;23;
67892;PMS7003;54688;52.376;16.744;2022-11-20T00:09:02;30;21;
67892;PMS7003;54688;52.376;16.744;2022-11-20T00:12:04;32;22;
67892;PMS7003;54688;52.376;16.744;2022-11-20T00:15:07;33;27;
67892;PMS7003;54688;52.376;16.744;2022-11-20T00:18:10;29;21;
67892;PMS7003;54688;52.376;16.744;2022-11-20T00:21:14;26;18;
67892;PMS7003;54688;52.376;16.744;2022-11-20T00:24:16;25;19;
67892;PMS7003;54688;52.376;16.744;2022-11-20T00:27:19;16;14;
67892;PMS7003;54688;52.376;16.744;2022-11-20T00:30:21;18;15;
67892;PMS7003;54688;52.376;16.744;2022-11-20T00:33:24;19;14;
67892;PMS7003;54688;52.376;16.744;2022-11-20T00:36:27;16;12;
67892;PMS7003;54688;52.376;16.744;2022-11-20T00:39:29;16;15;
67892;PMS7003;54688;52.376;16.744;2022-11-20T00:42:31;24;12;
67892;PMS7003;54688;52.376;16.744;2022-11-20T00:45:33;13;11;
67892;PMS7003;54688;52.376;16.744;2022-11-20T00:48:36;13;12;
67892;PMS7003;54688;52.376;16.744;2022-11-20T00:51:38;17;17;
67892;PMS7003;54688;52.376;16.744;2022-11-20T00:54:40;13;11;
67892;PMS7003;54688;52.376;16.744;2022-11-20T00:57:42;15;15;
67892;PMS7003;54688;52.376;16.744;2022-11-20T01:00:44;21;15;
67892;PMS7003;54688;52.376;16.744;2022-11-20T01:03:48;13;9;
67892;PMS7003;54688;52.376;16.744;2022-11-20T01:06:50;29;17;
67892;PMS7003;54688;52.376;16.744;2022-11-20T01:09:52;14;14;
67892;PMS7003;54688;52.376;16.744;2022-11-20T01:12:54;16;15;
67892;PMS7003;54688;52.376;16.744;2022-11-20T01:16:01;24;18;
67892;PMS7003;54688;52.376;16.744;2022-11-20T01:19:05;18;15;
67892;PMS7003;54688;52.376;16.744;2022-11-20T01:22:07;21;13;
67892;PMS7003;54688;52.376;16.744;2022-11-20T01:25:09;15;11;
67892;PMS7003;54688;52.376;16.744;2022-11-20T01:28:11;14;12;
67892;PMS7003;54688;52.376;16.744;2022-11-20T01:31:14;11;11;
67892;PMS7003;54688;52.376;16.744;2022-11-20T01:34:18;19;14;
67892;PMS7003;54688;52.376;16.744;2022-11-20T01:37:20;15;15;
67892;PMS7003;54688;52.376;16.744;2022-11-20T01:40:22;15;14;
67892;PMS7003;54688;52.376;16.744;2022-11-20T01:46:25;16;15;
67892;PMS7003;54688;52.376;16.744;2022-11-20T01:49:31;24;17;
67892;PMS7003;54688;52.376;16.744;2022-11-20T01:52:40;17;15;
67892;PMS7003;54688;52.376;16.744;2022-11-20T01:55:47;18;15;
67892;PMS7003;54688;52.376;16.744;2022-11-20T01:58:57;14;13;
67892;PMS7003;54688;52.376;16.744;2022-11-20T02:02:00;18;15;
67892;PMS7003;54688;52.376;16.744;2022-11-20T02:05:12;22;17;
67892;PMS7003;54688;52.376;16.744;2022-11-20T02:08:17;17;16;
67892;PMS7003;54688;52.376;16.744;2022-11-20T02:11:20;18;16;
67892;PMS7003;54688;52.376;16.744;2022-11-20T02:14:22;32;24;
67892;PMS7003;54688;52.376;16.744;2022-11-20T02:17:25;19;18;
67892;PMS7003;54688;52.376;16.744;2022-11-20T02:20:27;19;16;
67892;PMS7003;54688;52.376;16.744;2022-11-20T02:23:33;25;16;
67892;PMS7003;54688;52.376;16.744;2022-11-20T02:26:43;21;17;
67892;PMS7003;54688;52.376;16.744;2022-11-20T02:29:49;22;17;
67892;PMS7003;54688;52.376;16.744;2022-11-20T02:32:52;22;16;
67892;PMS7003;54688;52.376;16.744;2022-11-20T02:35:55;21;16;
67892;PMS7003;54688;52.376;16.744;2022-11-20T02:38:57;24;17;
67892;PMS7003;54688;52.376;16.744;2022-11-20T02:42:00;19;17;
67892;PMS7003;54688;52.376;16.744;2022-11-20T02:45:03;24;15;
67892;PMS7003;54688;52.376;16.744;2022-11-20T02:51:04;22;16;
67892;PMS7003;54688;52.376;16.744;2022-11-20T02:54:07;23;17;
67892;PMS7003;54688;52.376;16.744;2022-11-20T02:57:09;31;22;
67892;PMS7003;54688;52.376;16.744;2022-11-20T03:00:12;18;16;
67892;PMS7003;54688;52.376;16.744;2022-11-20T03:03:14;18;15;
67892;PMS7003;54688;52.376;16.744;2022-11-20T03:06:16;24;21;
67892;PMS7003;54688;52.376;16.744;2022-11-20T03:09:18;24;18;
67892;PMS7003;54688;52.376;16.744;2022-11-20T03:12:21;27;17;
67892;PMS7003;54688;52.376;16.744;2022-11-20T03:15:23;24;16;
67892;PMS7003;54688;52.376;16.744;2022-11-20T03:18:27;31;24;
67892;PMS7003;54688;52.376;16.744;2022-11-20T03:21:30;28;17;
67892;PMS7003;54688;52.376;16.744;2022-11-20T03:24:32;31;21;
67892;PMS7003;54688;52.376;16.744;2022-11-20T03:27:34;35;27;
67892;PMS7003;54688;52.376;16.744;2022-11-20T03:30:36;24;17;
67892;PMS7003;54688;52.376;16.744;2022-11-20T03:33:39;19;16;
67892;PMS7003;54688;52.376;16.744;2022-11-20T03:36:42;23;17;
67892;PMS7003;54688;52.376;16.744;2022-11-20T03:39:44;28;21;
67892;PMS7003;54688;52.376;16.744;2022-11-20T03:42:46;26;22;
67892;PMS7003;54688;52.376;16.744;2022-11-20T03:48:48;26;19;
67892;PMS7003;54688;52.376;16.744;2022-11-20T03:51:51;25;23;
67892;PMS7003;54688;52.376;16.744;2022-11-20T03:54:53;24;16;
67892;PMS7003;54688;52.376;16.744;2022-11-20T03:57:56;18;16;
67892;PMS7003;54688;52.376;16.744;2022-11-20T04:00:57;25;17;
67892;PMS7003;54688;52.376;16.744;2022-11-20T04:04:00;22;19;
67892;PMS7003;54688;52.376;16.744;2022-11-20T04:07:03;25;19;
67892;PMS7003;54688;52.376;16.744;2022-11-20T04:13:04;27;19;
67892;PMS7003;54688;52.376;16.744;2022-11-20T04:16:07;36;26;
67892;PMS7003;54688;52.376;16.744;2022-11-20T04:19:12;27;22;
67892;PMS7003;54688;52.376;16.744;2022-11-20T04:22:14;26;19;
67892;PMS7003;54688;52.376;16.744;2022-11-20T04:25:16;31;24;
67892;PMS7003;54688;52.376;16.744;2022-11-20T04:28:19;23;19;
67892;PMS7003;54688;52.376;16.744;2022-11-20T04:31:24;29;22;
67892;PMS7003;54688;52.376;16.744;2022-11-20T04:34:26;27;23;
67892;PMS7003;54688;52.376;16.744;2022-11-20T04:37:28;30;20;
67892;PMS7003;54688;52.376;16.744;2022-11-20T04:40:31;24;17;
67892;PMS7003;54688;52.376;16.744;2022-11-20T04:43:33;23;23;
67892;PMS7003;54688;52.376;16.744;2022-11-20T04:46:37;30;19;
67892;PMS7003;54688;52.376;16.744;2022-11-20T04:49:40;25;16;
67892;PMS7003;54688;52.376;16.744;2022-11-20T04:52:42;25;17;
67892;PMS7003;54688;52.376;16.744;2022-11-20T04:58:44;29;20;
67892;PMS7003;54688;52.376;16.744;2022-11-20T05:01:46;21;17;
67892;PMS7003;54688;52.376;16.744;2022-11-20T05:04:48;26;19;
67892;PMS7003;54688;52.376;16.744;2022-11-20T05:07:50;19;18;
67892;PMS7003;54688;52.376;16.744;2022-11-20T05:10:52;34;25;
67892;PMS7003;54688;52.376;16.744;2022-11-20T05:13:54;26;19;
67892;PMS7003;54688;52.376;16.744;2022-11-20T05:16:57;30;23;
67892;PMS7003;54688;52.376;16.744;2022-11-20T05:19:58;18;15;
67892;PMS7003;54688;52.376;16.744;2022-11-20T05:23:00;20;17;
67892;PMS7003;54688;52.376;16.744;2022-11-20T05:26:03;20;14;
67892;PMS7003;54688;52.376;16.744;2022-11-20T05:29:06;17;14;
67892;PMS7003;54688;52.376;16.744;2022-11-20T05:32:08;14;14;
67892;PMS7003;54688;52.376;16.744;2022-11-20T05:35:10;15;13;
67892;PMS7003;54688;52.376;16.744;2022-11-20T05:38:12;14;11;
67892;PMS7003;54688;52.376;16.744;2022-11-20T05:44:14;18;18;
67892;PMS7003;54688;52.376;16.744;2022-11-20T05:47:16;27;20;
67892;PMS7003;54688;52.376;16.744;2022-11-20T05:50:18;25;19;
67892;PMS7003;54688;52.376;16.744;2022-11-20T05:53:20;26;22;
67892;PMS7003;54688;52.376;16.744;2022-11-20T06:02:22;30;22;
67892;PMS7003;54688;52.376;16.744;2022-11-20T06:05:24;32;19;
67892;PMS7003;54688;52.376;16.744;2022-11-20T06:08:25;21;18;
67892;PMS7003;54688;52.376;16.744;2022-11-20T06:11:28;27;24;
67892;PMS7003;54688;52.376;16.744;2022-11-20T06:14:30;28;25;
67892;PMS7003;54688;52.376;16.744;2022-11-20T06:17:32;27;25;
67892;PMS7003;54688;52.376;16.744;2022-11-20T06:20:33;29;23;
67892;PMS7003;54688;52.376;16.744;2022-11-20T06:23:37;30;25;
67892;PMS7003;54688;52.376;16.744;2022-11-20T06:26:39;40;30;
67892;PMS7003;54688;52.376;16.744;2022-11-20T06:29:41;35;26;
67892;PMS7003;54688;52.376;16.744;2022-11-20T06:32:43;25;22;
67892;PMS7003;54688;52.376;16.744;2022-11-20T06:35:45;34;25;
67892;PMS7003;54688;52.376;16.744;2022-11-20T06:38:47;30;22;
67892;PMS7003;54688;52.376;16.744;2022-11-20T06:41:49;31;25;
67892;PMS7003;54688;52.376;16.744;2022-11-20T06:44:51;29;23;
67892;PMS7003;54688;52.376;16.744;2022-11-20T06:47:53;40;27;
67892;PMS7003;54688;52.376;16.744;2022-11-20T06:50:58;45;28;
67892;PMS7003;54688;52.376;16.744;2022-11-20T06:54:00;33;28;
67892;PMS7003;54688;52.376;16.744;2022-11-20T06:57:02;30;28;
67892;PMS7003;54688;52.376;16.744;2022-11-20T07:00:06;31;24;
67892;PMS7003;54688;52.376;16.744;2022-11-20T07:03:11;38;31;
67892;PMS7003;54688;52.376;16.744;2022-11-20T07:06:13;28;19;
67892;PMS7003;54688;52.376;16.744;2022-11-20T07:09:15;23;19;
67892;PMS7003;54688;52.376;16.744;2022-11-20T07:12:17;39;24;
67892;PMS7003;54688;52.376;16.744;2022-11-20T07:15:20;32;27;
67892;PMS7003;54688;52.376;16.744;2022-11-20T07:18:23;32;26;
67892;PMS7003;54688;52.376;16.744;2022-11-20T07:21:24;26;21;
67892;PMS7003;54688;52.376;16.744;2022-11-20T07:24:26;31;22;
67892;PMS7003;54688;52.376;16.744;2022-11-20T07:27:29;32;26;
67892;PMS7003;54688;52.376;16.744;2022-11-20T07:30:32;31;24;
67892;PMS7003;54688;52.376;16.744;2022-11-20T07:33:34;40;32;
67892;PMS7003;54688;52.376;16.744;2022-11-20T07:36:36;35;25;
67892;PMS7003;54688;52.376;16.744;2022-11-20T07:39:38;39;29;
67892;PMS7003;54688;52.376;16.744;2022-11-20T07:42:47;32;27;
67892;PMS7003;54688;52.376;16.744;2022-11-20T07:45:49;37;23;
67892;PMS7003;54688;52.376;16.744;2022-11-20T07:51:51;26;20;
67892;PMS7003;54688;52.376;16.744;2022-11-20T07:54:53;34;27;
67892;PMS7003;54688;52.376;16.744;2022-11-20T07:57:55;34;28;
67892;PMS7003;54688;52.376;16.744;2022-11-20T08:00:57;27;25;
67892;PMS7003;54688;52.376;16.744;2022-11-20T08:03:59;26;23;
67892;PMS7003;54688;52.376;16.744;2022-11-20T08:07:01;31;26;
67892;PMS7003;54688;52.376;16.744;2022-11-20T08:10:05;38;29;
67892;PMS7003;54688;52.376;16.744;2022-11-20T08:13:08;37;33;
67892;PMS7003;54688;52.376;16.744;2022-11-20T08:16:10;30;27;
67892;PMS7003;54688;52.376;16.744;2022-11-20T08:19:13;35;29;
67892;PMS7003;54688;52.376;16.744;2022-11-20T08:22:16;33;30;
67892;PMS7003;54688;52.376;16.744;2022-11-20T08:25:18;39;26;
67892;PMS7003;54688;52.376;16.744;2022-11-20T08:28:20;44;30;
67892;PMS7003;54688;52.376;16.744;2022-11-20T08:31:23;52;32;
67892;PMS7003;54688;52.376;16.744;2022-11-20T08:34:25;36;31;
67892;PMS7003;54688;52.376;16.744;2022-11-20T08:37:28;40;30;
67892;PMS7003;54688;52.376;16.744;2022-11-20T08:40:30;50;38;
67892;PMS7003;54688;52.376;16.744;2022-11-20T08:43:32;49;37;
67892;PMS7003;54688;52.376;16.744;2022-11-20T08:46:35;41;28;
67892;PMS7003;54688;52.376;16.744;2022-11-20T08:49:37;41;34;
67892;PMS7003;54688;52.376;16.744;2022-11-20T08:52:40;37;31;
67892;PMS7003;54688;52.376;16.744;2022-11-20T08:55:42;37;32;
67892;PMS7003;54688;52.376;16.744;2022-11-20T08:58:44;41;32;
67892;PMS7003;54688;52.376;16.744;2022-11-20T09:01:46;40;29;
67892;PMS7003;54688;52.376;16.744;2022-11-20T09:04:48;44;36;
67892;PMS7003;54688;52.376;16.744;2022-11-20T09:07:50;31;27;
67892;PMS7003;54688;52.376;16.744;2022-11-20T09:10:53;39;32;
67892;PMS7003;54688;52.376;16.744;2022-11-20T09:16:54;39;34;
67892;PMS7003;54688;52.376;16.744;2022-11-20T09:19:57;58;42;
67892;PMS7003;54688;52.376;16.744;2022-11-20T09:22:59;58;45;
67892;PMS7003;54688;52.376;16.744;2022-11-20T09:26:02;50;38;
67892;PMS7003;54688;52.376;16.744;2022-11-20T09:29:04;42;35;
67892;PMS7003;54688;52.376;16.744;2022-11-20T09:32:06;42;34;
67892;PMS7003;54688;52.376;16.744;2022-11-20T09:35:08;44;33;
67892;PMS7003;54688;52.376;16.744;2022-11-20T09:38:11;41;32;
67892;PMS7003;54688;52.376;16.744;2022-11-20T09:41:30;45;35;
67892;PMS7003;54688;52.376;16.744;2022-11-20T09:44:48;40;29;
67892;PMS7003;54688;52.376;16.744;2022-11-20T09:48:04;32;26;
67892;PMS7003;54688;52.376;16.744;2022-11-20T09:51:16;38;32;
67892;PMS7003;54688;52.376;16.744;2022-11-20T09:54:20;33;29;
67892;PMS7003;54688;52.376;16.744;2022-11-20T09:57:35;43;28;
67892;PMS7003;54688;52.376;16.744;2022-11-20T10:00:38;44;33;
67892;PMS7003;54688;52.376;16.744;2022-11-20T10:03:48;54;38;
67892;PMS7003;54688;52.376;16.744;2022-11-20T10:06:59;59;43;
67892;PMS7003;54688;52.376;16.744;2022-11-20T10:10:03;40;34;
67892;PMS7003;54688;52.376;16.744;2022-11-20T10:13:16;56;38;
67892;PMS7003;54688;52.376;16.744;2022-11-20T10:16:27;50;37;
67892;PMS7003;54688;52.376;16.744;2022-11-20T10:25:37;49;41;
67892;PMS7003;54688;52.376;16.744;2022-11-20T10:28:48;42;34;
67892;PMS7003;54688;52.376;16.744;2022-11-20T10:32:00;42;34;
67892;PMS7003;54688;52.376;16.744;2022-11-20T10:35:09;35;28;
67892;PMS7003;54688;52.376;16.744;2022-11-20T10:38:20;34;32;
67892;PMS7003;54688;52.376;16.744;2022-11-20T10:41:26;40;34;
67892;PMS7003;54688;52.376;16.744;2022-11-20T10:44:29;47;34;
67892;PMS7003;54688;52.376;16.744;2022-11-20T10:47:32;66;46;
67892;PMS7003;54688;52.376;16.744;2022-11-20T10:53:43;48;35;
67892;PMS7003;54688;52.376;16.744;2022-11-20T10:56:50;47;32;
67892;PMS7003;54688;52.376;16.744;2022-11-20T11:00:00;38;31;
67892;PMS7003;54688;52.376;16.744;2022-11-20T11:03:02;38;32;
67892;PMS7003;54688;52.376;16.744;2022-11-20T11:06:09;48;39;
67892;PMS7003;54688;52.376;16.744;2022-11-20T11:09:16;39;32;
67892;PMS7003;54688;52.376;16.744;2022-11-20T11:12:19;53;34;
67892;PMS7003;54688;52.376;16.744;2022-11-20T11:15:26;42;34;
67892;PMS7003;54688;52.376;16.744;2022-11-20T11:18:30;36;32;
67892;PMS7003;54688;52.376;16.744;2022-11-20T11:21:32;38;33;
67892;PMS7003;54688;52.376;16.744;2022-11-20T11:24:35;48;34;
67892;PMS7003;54688;52.376;16.744;2022-11-20T11:27:45;45;38;
67892;PMS7003;54688;52.376;16.744;2022-11-20T11:30:47;50;37;
67892;PMS7003;54688;52.376;16.744;2022-11-20T11:33:49;66;49;
67892;PMS7003;54688;52.376;16.744;2022-11-20T11:36:55;65;48;
67892;PMS7003;54688;52.376;16.744;2022-11-20T11:39:57;53;39;
67892;PMS7003;54688;52.376;16.744;2022-11-20T11:43:02;48;35;
67892;PMS7003;54688;52.376;16.744;2022-11-20T11:46:24;45;34;
67892;PMS7003;54688;52.376;16.744;2022-11-20T11:49:27;48;35;
67892;PMS7003;54688;52.376;16.744;2022-11-20T11:52:31;44;35;
67892;PMS7003;54688;52.376;16.744;2022-11-20T11:55:36;40;27;
67892;PMS7003;54688;52.376;16.744;2022-11-20T11:58:44;48;35;
67892;PMS7003;54688;52.376;16.744;2022-11-20T12:01:52;44;35;
67892;PMS7003;54688;52.376;16.744;2022-11-20T12:04:59;44;34;
67892;PMS7003;54688;52.376;16.744;2022-11-20T12:08:06;50;35;
67892;PMS7003;54688;52.376;16.744;2022-11-20T12:11:16;49;36;
67892;PMS7003;54688;52.376;16.744;2022-11-20T12:14:21;48;36;
67892;PMS7003;54688;52.376;16.744;2022-11-20T12:17:27;46;36;
67892;PMS7003;54688;52.376;16.744;2022-11-20T12:20:33;48;35;
67892;PMS7003;54688;52.376;16.744;2022-11-20T12:23:45;46;34;
67892;PMS7003;54688;52.376;16.744;2022-11-20T12:27:01;45;37;
67892;PMS7003;54688;52.376;16.744;2022-11-20T12:30:10;48;35;
67892;PMS7003;54688;52.376;16.744;2022-11-20T12:33:25;47;35;
67892;PMS7003;54688;52.376;16.744;2022-11-20T12:36:39;56;38;
67892;PMS7003;54688;52.376;16.744;2022-11-20T12:39:47;39;33;
67892;PMS7003;54688;52.376;16.744;2022-11-20T12:42:57;55;40;
67892;PMS7003;54688;52.376;16.744;2022-11-20T12:46:09;48;38;
67892;PMS7003;54688;52.376;16.744;2022-11-20T12:49:26;56;42;
67892;PMS7003;54688;52.376;16.744;2022-11-20T12:52:38;56;42;
67892;PMS7003;54688;52.376;16.744;2022-11-20T12:55:47;56;42;
67892;PMS7003;54688;52.376;16.744;2022-11-20T12:59:02;55;43;
67892;PMS7003;54688;52.376;16.744;2022-11-20T13:02:17;46;38;
67892;PMS7003;54688;52.376;16.744;2022-11-20T13:05:27;59;40;
67892;PMS7003;54688;52.376;16.744;2022-11-20T13:08:35;56;39;
67892;PMS7003;54688;52.376;16.744;2022-11-20T13:11:43;59;43;
67892;PMS7003;54688;52.376;16.744;2022-11-20T13:14:53;52;40;
67892;PMS7003;54688;52.376;16.744;2022-11-20T13:17:59;51;39;
67892;PMS7003;54688;52.376;16.744;2022-11-20T13:21:01;52;38;
67892;PMS7003;54688;52.376;16.744;2022-11-20T13:24:04;46;34;
67892;PMS7003;54688;52.376;16.744;2022-11-20T13:27:23;48;37;
67892;PMS7003;54688;52.376;16.744;2022-11-20T13:30:26;42;35;
67892;PMS7003;54688;52.376;16.744;2022-11-20T13:33:30;53;38;
67892;PMS7003;54688;52.376;16.744;2022-11-20T13:36:32;55;41;
67892;PMS7003;54688;52.376;16.744;2022-11-20T13:39:36;52;39;
67892;PMS7003;54688;52.376;16.744;2022-11-20T13:42:40;58;45;
67892;PMS7003;54688;52.376;16.744;2022-11-20T13:45:55;53;41;
67892;PMS7003;54688;52.376;16.744;2022-11-20T13:48:57;62;45;
67892;PMS7003;54688;52.376;16.744;2022-11-20T13:52:18;51;37;
67892;PMS7003;54688;52.376;16.744;2022-11-20T13:55:29;52;39;
67892;PMS7003;54688;52.376;16.744;2022-11-20T13:58:44;48;37;
67892;PMS7003;54688;52.376;16.744;2022-11-20T14:01:56;51;37;
67892;PMS7003;54688;52.376;16.744;2022-11-20T14:07:56;50;37;
67892;PMS7003;54688;52.376;16.744;2022-11-20T14:14:00;62;47;
67892;PMS7003;54688;52.376;16.744;2022-11-20T14:17:06;65;48;
67892;PMS7003;54688;52.376;16.744;2022-11-20T14:20:13;71;53;
67892;PMS7003;54688;52.376;16.744;2022-11-20T14:26:17;77;56;
67892;PMS7003;54688;52.376;16.744;2022-11-20T14:29:23;70;51;
67892;PMS7003;54688;52.376;16.744;2022-11-20T14:35:30;64;47;
67892;PMS7003;54688;52.376;16.744;2022-11-20T14:38:33;78;54;
67892;PMS7003;54688;52.376;16.744;2022-11-20T14:41:35;85;69;
67892;PMS7003;54688;52.376;16.744;2022-11-20T14:44:37;118;98;
67892;PMS7003;54688;52.376;16.744;2022-11-20T14:47:39;92;74;
67892;PMS7003;54688;52.376;16.744;2022-11-20T14:50:43;84;68;
67892;PMS7003;54688;52.376;16.744;2022-11-20T14:53:45;76;57;
67892;PMS7003;54688;52.376;16.744;2022-11-20T14:56:53;83;62;
67892;PMS7003;54688;52.376;16.744;2022-11-20T15:00:06;70;51;
67892;PMS7003;54688;52.376;16.744;2022-11-20T15:06:11;68;52;
67892;PMS7003;54688;52.376;16.744;2022-11-20T15:09:14;84;67;
67892;PMS7003;54688;52.376;16.744;2022-11-20T15:12:17;83;65;
67892;PMS7003;54688;52.376;16.744;2022-11-20T15:15:23;124;76;
67892;PMS7003;54688;52.376;16.744;2022-11-20T15:18:28;157;117;
67892;PMS7003;54688;52.376;16.744;2022-11-20T15:21:31;177;126;
67892;PMS7003;54688;52.376;16.744;2022-11-20T15:24:33;171;128;
67892;PMS7003;54688;52.376;16.744;2022-11-20T15:27:36;81;59;
67892;PMS7003;54688;52.376;16.744;2022-11-20T15:30:37;79;55;
67892;PMS7003;54688;52.376;16.744;2022-11-20T15:33:39;71;53;
67892;PMS7003;54688;52.376;16.744;2022-11-20T15:36:42;63;49;
67892;PMS7003;54688;52.376;16.744;2022-11-20T15:39:44;78;59;
67892;PMS7003;54688;52.376;16.744;2022-11-20T15:42:46;83;62;
67892;PMS7003;54688;52.376;16.744;2022-11-20T15:45:49;134;100;
67892;PMS7003;54688;52.376;16.744;2022-11-20T15:48:55;105;76;
67892;PMS7003;54688;52.376;16.744;2022-11-20T15:51:57;110;85;
67892;PMS7003;54688;52.376;16.744;2022-11-20T15:54:59;96;77;
67892;PMS7003;54688;52.376;16.744;2022-11-20T15:58:01;91;73;
67892;PMS7003;54688;52.376;16.744;2022-11-20T16:01:03;82;65;
67892;PMS7003;54688;52.376;16.744;2022-11-20T16:04:09;88;66;
67892;PMS7003;54688;52.376;16.744;2022-11-20T16:07:11;66;50;
67892;PMS7003;54688;52.376;16.744;2022-11-20T16:10:14;62;47;
67892;PMS7003;54688;52.376;16.744;2022-11-20T16:13:17;64;47;
67892;PMS7003;54688;52.376;16.744;2022-11-20T16:16:21;75;54;
67892;PMS7003;54688;52.376;16.744;2022-11-20T16:19:23;73;53;
67892;PMS7003;54688;52.376;16.744;2022-11-20T16:25:27;77;55;
67892;PMS7003;54688;52.376;16.744;2022-11-20T16:28:29;84;68;
67892;PMS7003;54688;52.376;16.744;2022-11-20T16:31:31;100;72;
67892;PMS7003;54688;52.376;16.744;2022-11-20T16:34:34;104;78;
67892;PMS7003;54688;52.376;16.744;2022-11-20T16:37:36;104;77;
67892;PMS7003;54688;52.376;16.744;2022-11-20T16:40:38;127;93;
67892;PMS7003;54688;52.376;16.744;2022-11-20T16:43:44;123;96;
67892;PMS7003;54688;52.376;16.744;2022-11-20T16:46:45;132;101;
67892;PMS7003;54688;52.376;16.744;2022-11-20T16:49:48;103;87;
67892;PMS7003;54688;52.376;16.744;2022-11-20T16:52:50;91;74;
67892;PMS7003;54688;52.376;16.744;2022-11-20T16:55:52;86;69;
67892;PMS7003;54688;52.376;16.744;2022-11-20T16:58:55;85;68;
67892;PMS7003;54688;52.376;16.744;2022-11-20T17:01:58;86;65;
67892;PMS7003;54688;52.376;16.744;2022-11-20T17:05:00;79;60;
67892;PMS7003;54688;52.376;16.744;2022-11-20T17:08:02;82;59;
67892;PMS7003;54688;52.376;16.744;2022-11-20T17:11:05;80;61;
67892;PMS7003;54688;52.376;16.744;2022-11-20T17:14:09;83;59;
67892;PMS7003;54688;52.376;16.744;2022-11-20T17:17:11;77;58;
67892;PMS7003;54688;52.376;16.744;2022-11-20T17:20:13;76;57;
67892;PMS7003;54688;52.376;16.744;2022-11-20T17:23:15;86;69;
67892;PMS7003;54688;52.376;16.744;2022-11-20T17:26:19;84;67;
67892;PMS7003;54688;52.376;16.744;2022-11-20T17:29:21;79;56;
67892;PMS7003;54688;52.376;16.744;2022-11-20T17:32:23;77;57;
67892;PMS7003;54688;52.376;16.744;2022-11-20T17:35:25;88;79;
67892;PMS7003;54688;52.376;16.744;2022-11-20T17:38:28;94;73;
67892;PMS7003;54688;52.376;16.744;2022-11-20T17:41:30;85;69;
67892;PMS7003;54688;52.376;16.744;2022-11-20T17:44:32;72;55;
67892;PMS7003;54688;52.376;16.744;2022-11-20T17:47:35;67;49;
67892;PMS7003;54688;52.376;16.744;2022-11-20T17:50:37;82;58;
67892;PMS7003;54688;52.376;16.744;2022-11-20T17:53:41;87;68;
67892;PMS7003;54688;52.376;16.744;2022-11-20T17:56:43;82;64;
67892;PMS7003;54688;52.376;16.744;2022-11-20T17:59:45;86;64;
67892;PMS7003;54688;52.376;16.744;2022-11-20T18:02:47;68;53;
67892;PMS7003;54688;52.376;16.744;2022-11-20T18:05:49;72;54;
67892;PMS7003;54688;52.376;16.744;2022-11-20T18:08:51;71;51;
67892;PMS7003;54688;52.376;16.744;2022-11-20T18:11:54;75;54;
67892;PMS7003;54688;52.376;16.744;2022-11-20T18:14:56;74;58;
67892;PMS7003;54688;52.376;16.744;2022-11-20T18:17:58;86;68;
67892;PMS7003;54688;52.376;16.744;2022-11-20T18:21:00;78;58;
67892;PMS7003;54688;52.376;16.744;2022-11-20T18:24:02;80;61;
67892;PMS7003;54688;52.376;16.744;2022-11-20T18:27:06;78;59;
67892;PMS7003;54688;52.376;16.744;2022-11-20T18:30:10;132;99;
67892;PMS7003;54688;52.376;16.744;2022-11-20T18:33:12;111;94;
67892;PMS7003;54688;52.376;16.744;2022-11-20T18:36:16;95;80;
67892;PMS7003;54688;52.376;16.744;2022-11-20T18:39:18;86;64;
67892;PMS7003;54688;52.376;16.744;2022-11-20T18:42:21;104;82;
67892;PMS7003;54688;52.376;16.744;2022-11-20T18:45:23;90;74;
67892;PMS7003;54688;52.376;16.744;2022-11-20T18:48:25;92;75;
67892;PMS7003;54688;52.376;16.744;2022-11-20T18:51:27;102;73;
67892;PMS7003;54688;52.376;16.744;2022-11-20T18:54:30;94;70;
67892;PMS7003;54688;52.376;16.744;2022-11-20T18:57:32;81;61;
67892;PMS7003;54688;52.376;16.744;2022-11-20T19:00:34;79;61;
67892;PMS7003;54688;52.376;16.744;2022-11-20T19:03:37;75;56;
67892;PMS7003;54688;52.376;16.744;2022-11-20T19:06:40;70;53;
67892;PMS7003;54688;52.376;16.744;2022-11-20T19:09:44;72;50;
67892;PMS7003;54688;52.376;16.744;2022-11-20T19:12:49;74;56;
67892;PMS7003;54688;52.376;16.744;2022-11-20T19:15:51;95;75;
67892;PMS7003;54688;52.376;16.744;2022-11-20T19:18:54;90;71;
67892;PMS7003;54688;52.376;16.744;2022-11-20T19:21:56;84;70;
67892;PMS7003;54688;52.376;16.744;2022-11-20T19:24:58;73;55;
67892;PMS7003;54688;52.376;16.744;2022-11-20T19:27:59;66;49;
67892;PMS7003;54688;52.376;16.744;2022-11-20T19:31:02;84;57;
67892;PMS7003;54688;52.376;16.744;2022-11-20T19:34:04;82;59;
67892;PMS7003;54688;52.376;16.744;2022-11-20T19:37:07;95;74;
67892;PMS7003;54688;52.376;16.744;2022-11-20T19:40:09;107;86;
67892;PMS7003;54688;52.376;16.744;2022-11-20T19:43:11;69;53;
67892;PMS7003;54688;52.376;16.744;2022-11-20T19:49:13;71;52;
67892;PMS7003;54688;52.376;16.744;2022-11-20T19:52:15;72;50;
67892;PMS7003;54688;52.376;16.744;2022-11-20T19:55:18;73;51;
67892;PMS7003;54688;52.376;16.744;2022-11-20T20:01:21;79;57;
67892;PMS7003;54688;52.376;16.744;2022-11-20T20:04:23;76;53;
67892;PMS7003;54688;52.376;16.744;2022-11-20T20:07:25;63;50;
67892;PMS7003;54688;52.376;16.744;2022-11-20T20:10:27;76;52;
67892;PMS7003;54688;52.376;16.744;2022-11-20T20:13:29;81;58;
67892;PMS7003;54688;52.376;16.744;2022-11-20T20:16:31;83;58;
67892;PMS7003;54688;52.376;16.744;2022-11-20T20:19:34;68;54;
67892;PMS7003;54688;52.376;16.744;2022-11-20T20:22:36;68;50;
67892;PMS7003;54688;52.376;16.744;2022-11-20T20:25:38;73;50;
67892;PMS7003;54688;52.376;16.744;2022-11-20T20:28:39;66;49;
67892;PMS7003;54688;52.376;16.744;2022-11-20T20:31:41;74;52;
67892;PMS7003;54688;52.376;16.744;2022-11-20T20:34:43;67;51;
67892;PMS7003;54688;52.376;16.744;2022-11-20T20:37:46;69;53;
67892;PMS7003;54688;52.376;16.744;2022-11-20T20:40:49;70;54;
67892;PMS7003;54688;52.376;16.744;2022-11-20T20:43:51;71;55;
67892;PMS7003;54688;52.376;16.744;2022-11-20T20:46:53;74;55;
67892;PMS7003;54688;52.376;16.744;2022-11-20T20:49:56;77;54;
67892;PMS7003;54688;52.376;16.744;2022-11-20T20:52:58;71;52;
67892;PMS7003;54688;52.376;16.744;2022-11-20T20:56:01;80;56;
67892;PMS7003;54688;52.376;16.744;2022-11-20T20:59:03;72;49;
67892;PMS7003;54688;52.376;16.744;2022-11-20T21:02:05;73;52;
67892;PMS7003;54688;52.376;16.744;2022-11-20T21:05:07;68;50;